createdAt,value
2018-12-03T00:00:00.880Z,317.50
2018-12-03T00:02:33.966Z,300.75
2018-12-03T00:05:06.431Z,325.75
2018-12-03T00:07:38.757Z,327.25
2018-12-03T00:10:11.551Z,324.00
2018-12-03T00:12:43.619Z,311.25
2018-12-03T00:15:15.681Z,330.75
2018-12-03T00:17:47.954Z,318.25
2018-12-03T00:20:20.226Z,320.00
2018-12-03T00:22:52.421Z,321.75
2018-12-03T00:25:24.476Z,306.50
2018-12-03T00:27:56.623Z,289.25
2018-12-03T00:30:28.827Z,330.00
2018-12-03T00:33:00.987Z,311.25
2018-12-03T00:35:33.505Z,304.00
2018-12-03T00:38:05.625Z,291.75
2018-12-03T00:40:37.724Z,290.75
2018-12-03T00:43:09.801Z,303.00
2018-12-03T00:45:41.828Z,309.00
2018-12-03T00:48:13.726Z,301.25
2018-12-03T00:50:45.394Z,303.00
2018-12-03T00:53:17.453Z,309.75
2018-12-03T00:55:49.646Z,296.75
2018-12-03T00:58:21.918Z,306.50
2018-12-03T01:00:53.550Z,319.75
2018-12-03T01:03:25.714Z,302.00
2018-12-03T01:05:58.392Z,334.75
2018-12-03T01:08:30.391Z,295.50
2018-12-03T01:11:02.997Z,308.50
2018-12-03T01:13:34.800Z,315.00
2018-12-03T01:16:06.845Z,317.25
2018-12-03T01:18:40.271Z,327.75
2018-12-03T01:21:12.047Z,320.75
2018-12-03T01:23:44.190Z,313.25
2018-12-03T01:26:15.817Z,310.25
2018-12-03T01:28:47.659Z,305.50
2018-12-03T01:31:21.693Z,314.50
2018-12-03T01:33:54.004Z,320.00
2018-12-03T01:36:26.228Z,319.00
2018-12-03T01:38:58.134Z,306.00
2018-12-03T01:41:29.873Z,308.50
2018-12-03T01:44:01.939Z,304.50
2018-12-03T01:46:33.718Z,315.25
2018-12-03T01:49:05.664Z,320.25
2018-12-03T01:51:37.769Z,325.75
2018-12-03T01:54:09.830Z,313.50
2018-12-03T01:56:44.332Z,363.00
2018-12-03T01:59:16.300Z,352.25
2018-12-03T02:01:48.205Z,330.50
2018-12-03T02:04:19.957Z,368.00
2018-12-03T02:06:52.144Z,271.75
2018-12-03T02:09:24.235Z,301.75
2018-12-03T02:11:56.033Z,308.75
2018-12-03T02:14:28.243Z,310.50
2018-12-03T02:17:00.091Z,319.25
2018-12-03T02:19:33.068Z,335.25
2018-12-03T02:22:04.889Z,328.00
2018-12-03T02:24:37.136Z,311.50
2018-12-03T02:27:09.434Z,304.75
2018-12-03T02:29:41.521Z,327.50
2018-12-03T02:32:13.210Z,337.00
2018-12-03T02:34:45.347Z,326.00
2018-12-03T02:37:17.567Z,361.25
2018-12-03T02:39:49.332Z,339.25
2018-12-03T02:42:21.157Z,370.75
2018-12-03T02:44:52.895Z,356.75
2018-12-03T02:47:24.348Z,364.75
2018-12-03T02:49:56.055Z,393.75
2018-12-03T02:52:28.096Z,365.25
2018-12-03T02:55:00.182Z,412.50
2018-12-03T02:57:32.030Z,442.25
2018-12-03T03:00:04.106Z,444.50
2018-12-03T03:02:36.041Z,447.80
2018-12-03T03:05:09.950Z,447.80
2018-12-03T03:07:41.926Z,470.60
2018-12-03T03:10:15.769Z,474.40
2018-12-03T03:12:48.042Z,431.40
2018-12-03T03:15:19.965Z,477.60
2018-12-03T03:17:52.750Z,472.80
2018-12-03T03:20:25.326Z,454.40
2018-12-03T03:22:57.109Z,445.50
2018-12-03T03:25:29.348Z,413.25
2018-12-03T03:28:01.504Z,400.50
2018-12-03T03:30:33.419Z,369.50
2018-12-03T03:33:05.472Z,348.50
2018-12-03T03:35:37.688Z,356.75
2018-12-03T03:38:10.904Z,312.75
2018-12-03T03:40:42.787Z,303.25
2018-12-03T03:43:14.531Z,299.25
2018-12-03T03:45:46.588Z,285.50
2018-12-03T03:48:18.717Z,316.25
2018-12-03T03:50:50.602Z,286.00
2018-12-03T03:53:22.401Z,293.00
2018-12-03T03:55:54.240Z,305.25
2018-12-03T03:58:26.224Z,321.75
2018-12-03T04:00:57.985Z,324.50
2018-12-03T04:03:29.602Z,350.75
2018-12-03T04:06:01.676Z,339.50
2018-12-03T04:08:33.961Z,350.25
2018-12-03T04:11:05.723Z,358.25
2018-12-03T04:13:37.628Z,350.00
2018-12-03T04:16:09.674Z,370.25
2018-12-03T04:18:41.849Z,370.75
2018-12-03T04:21:14.137Z,380.00
2018-12-03T04:23:46.379Z,404.25
2018-12-03T04:26:18.144Z,397.00
2018-12-03T04:28:50.029Z,390.50
2018-12-03T04:31:21.960Z,392.00
2018-12-03T04:33:53.840Z,404.75
2018-12-03T04:36:25.904Z,356.25
2018-12-03T04:38:58.215Z,341.00
2018-12-03T04:41:30.608Z,317.50
2018-12-03T04:44:02.608Z,352.25
2018-12-03T04:46:34.264Z,307.75
2018-12-03T04:49:06.106Z,293.75
2018-12-03T04:51:37.999Z,313.75
2018-12-03T04:54:10.073Z,278.50
2018-12-03T04:56:41.912Z,285.25
2018-12-03T04:59:13.688Z,300.00
2018-12-03T05:01:45.528Z,298.50
2018-12-03T05:04:16.979Z,292.75
2018-12-03T05:06:49.629Z,235.25
2018-12-03T05:09:22.127Z,211.75
2018-12-03T05:11:54.169Z,235.00
2018-12-03T05:14:25.582Z,238.75
2018-12-03T05:16:57.412Z,208.00
2018-12-03T05:19:29.302Z,233.40
2018-12-03T05:22:00.820Z,227.00
2018-12-03T05:24:32.693Z,179.20
2018-12-03T05:27:04.427Z,219.20
2018-12-03T05:29:36.017Z,191.00
2018-12-03T05:32:09.125Z,176.60
2018-12-03T05:34:40.813Z,184.20
2018-12-03T05:37:12.698Z,187.80
2018-12-03T05:39:45.275Z,191.20
2018-12-03T05:42:17.044Z,168.00
2018-12-03T05:44:48.865Z,184.60
2018-12-03T05:47:20.558Z,168.40
2018-12-03T05:49:52.149Z,160.80
2018-12-03T05:52:23.644Z,166.40
2018-12-03T05:54:55.145Z,186.20
2018-12-03T05:57:26.701Z,166.40
2018-12-03T05:59:58.400Z,168.20
2018-12-03T06:02:29.986Z,183.60
2018-12-03T06:05:01.715Z,172.00
2018-12-03T06:07:33.326Z,171.80
2018-12-03T06:10:05.988Z,179.00
2018-12-03T06:12:37.362Z,177.40
2018-12-03T06:15:11.565Z,163.60
2018-12-03T06:17:43.138Z,172.60
2018-12-03T06:20:17.709Z,187.40
2018-12-03T06:22:49.881Z,175.20
2018-12-03T06:25:22.719Z,170.20
2018-12-03T06:27:54.283Z,177.80
2018-12-03T06:30:26.968Z,175.40
2018-12-03T06:32:58.345Z,181.60
2018-12-03T06:35:29.902Z,151.00
2018-12-03T06:38:01.276Z,143.80
2018-12-03T06:40:34.548Z,117.80
2018-12-03T06:43:06.051Z,136.00
2018-12-03T06:45:37.806Z,145.40
2018-12-03T06:48:17.220Z,112.80
2018-12-03T06:50:48.915Z,127.00
2018-12-03T06:53:20.438Z,108.80
2018-12-03T06:55:52.035Z,115.80
2018-12-03T06:58:23.507Z,125.00
2018-12-03T07:00:54.979Z,121.60
2018-12-03T07:03:26.522Z,113.80
2018-12-03T07:05:58.119Z,118.60
2018-12-03T07:08:30.636Z,117.20
2018-12-03T07:11:02.907Z,132.80
2018-12-03T07:13:34.345Z,114.60
2018-12-03T07:16:05.924Z,116.20
2018-12-03T07:18:38.283Z,123.40
2018-12-03T07:21:09.873Z,105.80
2018-12-03T07:23:43.053Z,113.60
2018-12-03T07:26:15.739Z,103.00
2018-12-03T07:28:47.207Z,103.60
2018-12-03T07:31:19.139Z,106.20
2018-12-03T07:33:50.757Z,105.20
2018-12-03T07:36:22.383Z,103.40
2018-12-03T07:38:53.870Z,107.80
2018-12-03T07:41:27.008Z,98.00
2018-12-03T07:43:58.547Z,103.00
2018-12-03T07:46:30.351Z,107.80
2018-12-03T07:49:01.873Z,112.00
2018-12-03T07:51:33.712Z,110.00
2018-12-03T07:54:05.302Z,112.40
2018-12-03T07:56:36.931Z,106.40
2018-12-03T07:59:08.751Z,113.00
2018-12-03T08:01:40.397Z,102.20
2018-12-03T08:04:12.059Z,119.20
2018-12-03T08:06:43.758Z,99.20
2018-12-03T08:09:15.371Z,105.60
2018-12-03T08:11:47.947Z,97.40
2018-12-03T08:14:20.613Z,92.80
2018-12-03T08:16:52.678Z,99.80
2018-12-03T08:19:28.320Z,111.60
2018-12-03T08:22:03.350Z,103.00
2018-12-03T08:24:35.098Z,107.20
2018-12-03T08:27:07.057Z,117.60
2018-12-03T08:29:39.722Z,99.20
2018-12-03T08:32:11.295Z,97.00
2018-12-03T08:34:42.706Z,97.20
2018-12-03T08:37:15.034Z,93.20
2018-12-03T08:39:46.753Z,98.80
2018-12-03T08:42:19.411Z,101.00
2018-12-03T08:44:51.912Z,97.20
2018-12-03T08:47:23.639Z,93.40
2018-12-03T08:49:55.683Z,106.60
2018-12-03T08:52:27.694Z,91.00
2018-12-03T08:55:00.180Z,133.60
2018-12-03T08:57:32.538Z,159.80
2018-12-03T09:00:04.772Z,221.25
2018-12-03T09:02:36.328Z,149.40
2018-12-03T09:05:09.046Z,92.80
2018-12-03T09:07:42.806Z,103.80
2018-12-03T09:10:17.444Z,94.80
2018-12-03T09:12:49.774Z,95.00
2018-12-03T09:15:21.199Z,91.20
2018-12-03T09:17:52.929Z,95.20
2018-12-03T09:20:25.275Z,97.00
2018-12-03T09:22:57.557Z,86.40
2018-12-03T09:25:29.284Z,89.00
2018-12-03T09:28:01.084Z,96.60
2018-12-03T09:30:33.084Z,93.80
2018-12-03T09:33:04.924Z,94.80
2018-12-03T09:35:37.258Z,95.60
2018-12-03T09:38:11.308Z,97.40
2018-12-03T09:40:42.847Z,104.20
2018-12-03T09:43:15.902Z,95.60
2018-12-03T09:45:47.774Z,96.40
2018-12-03T09:48:19.356Z,94.60
2018-12-03T09:50:50.870Z,96.40
2018-12-03T09:53:22.639Z,91.80
2018-12-03T09:55:54.440Z,96.00
2018-12-03T09:58:26.581Z,88.20
2018-12-03T10:00:58.821Z,91.20
2018-12-03T10:03:35.561Z,95.60
2018-12-03T10:06:15.986Z,89.80
2018-12-03T10:08:48.057Z,95.60
2018-12-03T10:11:19.673Z,96.40
2018-12-03T10:13:52.571Z,93.80
2018-12-03T10:16:24.625Z,99.60
2018-12-03T10:19:00.333Z,99.00
2018-12-03T10:21:28.419Z,107.80
2018-12-03T10:24:00.209Z,107.40
2018-12-03T10:26:33.110Z,97.20
2018-12-03T10:29:05.334Z,99.20
2018-12-03T10:31:37.405Z,97.40
2018-12-03T10:34:12.142Z,105.40
2018-12-03T10:36:51.586Z,106.60
2018-12-03T10:39:28.625Z,104.40
2018-12-03T10:42:09.137Z,99.00
2018-12-03T10:44:41.807Z,97.80
2018-12-03T10:47:13.915Z,93.20
2018-12-03T10:49:45.978Z,99.60
2018-12-03T10:52:22.485Z,97.00
2018-12-03T10:54:54.705Z,93.40
2018-12-03T10:57:26.626Z,96.40
2018-12-03T10:59:59.216Z,100.20
2018-12-03T11:02:38.237Z,86.00
2018-12-03T11:05:15.435Z,96.60
2018-12-03T11:07:47.974Z,95.00
2018-12-03T11:10:20.180Z,92.40
2018-12-03T11:12:53.827Z,99.80
2018-12-03T11:15:26.247Z,95.00
2018-12-03T11:17:57.864Z,97.00
2018-12-03T11:20:30.790Z,98.40
2018-12-03T11:23:03.669Z,98.60
2018-12-03T11:25:37.232Z,95.80
2018-12-03T11:28:11.114Z,98.20
2018-12-03T11:30:51.804Z,95.00
2018-12-03T11:33:28.260Z,98.60
2018-12-03T11:36:01.426Z,93.60
2018-12-03T11:38:39.204Z,98.60
2018-12-03T11:41:11.172Z,98.00
2018-12-03T11:43:42.816Z,93.60
2018-12-03T11:46:17.678Z,100.00
2018-12-03T11:48:49.351Z,99.00
2018-12-03T11:51:21.414Z,97.00
2018-12-03T11:53:55.556Z,93.60
2018-12-03T11:56:27.526Z,99.20
2018-12-03T11:58:59.470Z,93.00
2018-12-03T12:01:31.393Z,97.80
2018-12-03T12:04:04.313Z,96.60
2018-12-03T12:06:36.162Z,92.00
2018-12-03T12:09:12.208Z,97.40
2018-12-03T12:11:44.215Z,94.80
2018-12-03T12:14:21.659Z,95.20
2018-12-03T12:16:53.763Z,96.20
2018-12-03T12:19:25.340Z,97.80
2018-12-03T12:21:57.346Z,94.20
2018-12-03T12:24:30.894Z,95.80
2018-12-03T12:27:02.728Z,99.40
2018-12-03T12:29:39.074Z,101.40
2018-12-03T12:32:10.916Z,95.40
2018-12-03T12:34:43.616Z,97.60
2018-12-03T12:37:15.512Z,94.80
2018-12-03T12:39:47.407Z,99.60
2018-12-03T12:42:19.397Z,104.00
2018-12-03T12:44:51.422Z,100.00
2018-12-03T12:47:24.262Z,112.40
2018-12-03T12:50:00.468Z,103.20
2018-12-03T12:52:32.709Z,104.20
2018-12-03T12:55:04.188Z,113.00
2018-12-03T12:57:35.904Z,101.20
2018-12-03T13:00:13.028Z,116.00
2018-12-03T13:02:46.379Z,110.60
2018-12-03T13:05:18.145Z,116.80
2018-12-03T13:07:49.615Z,121.60
2018-12-03T13:10:21.190Z,79.20
2018-12-03T13:12:54.094Z,125.20
2018-12-03T13:15:26.042Z,130.40
2018-12-03T13:17:58.586Z,143.40
2018-12-03T13:51:22.973Z,194.25
2018-12-03T13:53:55.376Z,232.25
2018-12-03T13:56:27.175Z,229.75
2018-12-03T13:58:59.313Z,230.25
2018-12-03T14:01:31.150Z,248.25
2018-12-03T14:04:08.391Z,258.25
2018-12-03T14:06:45.553Z,237.50
2018-12-03T14:11:36.467Z,238.25
2018-12-03T14:14:23.103Z,229.00
2018-12-03T14:17:02.253Z,235.25
2018-12-03T14:19:35.021Z,238.25
2018-12-03T14:22:14.695Z,242.25
2018-12-03T14:24:47.571Z,232.00
2018-12-03T14:27:19.232Z,255.25
2018-12-03T14:29:51.470Z,251.75
2018-12-03T14:32:23.375Z,272.75
2018-12-03T14:34:56.174Z,294.00
2018-12-03T14:37:28.928Z,314.25
2018-12-03T14:40:00.997Z,296.75
2018-12-03T14:42:33.457Z,326.25
2018-12-03T14:45:05.901Z,337.25
2018-12-03T14:47:38.099Z,332.00
2018-12-03T14:50:12.207Z,346.00
2018-12-03T14:52:44.051Z,349.25
2018-12-03T14:55:16.984Z,337.75
2018-12-03T14:57:49.282Z,350.00
2018-12-03T15:00:21.333Z,377.25
2018-12-03T15:02:53.170Z,409.20
2018-12-03T15:05:25.240Z,397.40
2018-12-03T15:07:56.765Z,412.00
2018-12-03T15:10:28.536Z,424.00
2018-12-03T15:13:00.365Z,423.80
2018-12-03T15:15:32.050Z,437.40
2018-12-03T15:18:03.582Z,472.40
2018-12-03T15:20:35.483Z,453.00
2018-12-03T15:23:07.584Z,529.40
2018-12-03T15:25:39.966Z,545.40
2018-12-03T15:28:15.453Z,619.33
2018-12-03T15:30:46.989Z,459.00
2018-12-03T15:33:18.658Z,480.20
2018-12-03T15:35:50.272Z,472.80
2018-12-03T15:38:21.763Z,464.80
2018-12-03T15:40:53.835Z,480.40
2018-12-03T15:43:26.338Z,478.20
2018-12-03T15:45:58.437Z,460.20
2018-12-03T15:48:30.304Z,503.40
2018-12-03T15:51:02.304Z,488.60
2018-12-03T15:53:34.471Z,476.20
2018-12-03T15:56:07.272Z,466.00
2018-12-03T15:58:38.933Z,473.60
2018-12-03T16:01:14.436Z,475.00
2018-12-03T16:03:44.877Z,495.20
2018-12-03T16:06:17.149Z,480.80
2018-12-03T16:08:48.798Z,481.00
2018-12-03T16:11:20.601Z,476.00
2018-12-03T16:13:52.157Z,495.80
2018-12-03T16:16:24.103Z,488.20
2018-12-03T16:18:56.041Z,507.60
2018-12-03T16:21:27.798Z,505.20
2018-12-03T16:23:59.761Z,477.60
2018-12-03T16:26:31.808Z,489.40
2018-12-03T16:29:03.728Z,476.40
2018-12-03T16:31:36.893Z,482.80
2018-12-03T16:34:08.808Z,515.20
2018-12-03T16:36:40.647Z,507.20
2018-12-03T16:39:12.610Z,543.20
2018-12-03T16:41:44.556Z,525.40
2018-12-03T16:44:16.618Z,531.40
2018-12-03T16:46:49.124Z,548.40
2018-12-03T16:49:21.178Z,506.20
2018-12-03T16:51:53.179Z,551.60
2018-12-03T16:54:24.692Z,583.40
2018-12-03T16:56:57.721Z,576.00
2018-12-03T16:59:29.298Z,579.83
2018-12-03T17:02:01.302Z,573.50
2018-12-03T17:04:33.197Z,583.00
2018-12-03T17:07:05.122Z,584.67
2018-12-03T17:09:36.808Z,572.00
2018-12-03T17:12:11.341Z,593.83
2018-12-03T17:14:43.127Z,618.80
2018-12-03T17:17:16.730Z,589.00
2018-12-03T17:19:54.858Z,597.20
2018-12-03T17:23:03.664Z,599.20
2018-12-03T17:25:35.184Z,583.40
2018-12-03T17:28:07.423Z,614.80
2018-12-03T17:30:39.118Z,585.40
2018-12-03T17:33:10.812Z,599.20
2018-12-03T17:38:43.731Z,513.80
2018-12-03T17:41:15.466Z,570.60
2018-12-03T17:43:48.769Z,601.50
2018-12-03T17:46:21.977Z,613.17
2018-12-03T17:48:54.896Z,608.33
2018-12-03T17:51:27.292Z,577.50
2018-12-03T17:54:03.657Z,592.33
2018-12-03T17:56:36.759Z,560.33
2018-12-03T17:59:09.778Z,610.40
2018-12-03T18:01:42.288Z,582.20
2018-12-03T18:04:15.905Z,612.17
2018-12-03T18:06:49.740Z,603.00
2018-12-03T18:09:22.565Z,606.60
2018-12-03T18:11:54.226Z,616.33
2018-12-03T18:14:27.329Z,629.17
2018-12-03T18:16:59.963Z,593.60
2018-12-03T18:19:33.711Z,613.50
2018-12-03T18:22:07.676Z,618.20
2018-12-03T18:24:43.701Z,634.80
2018-12-03T18:27:15.505Z,602.20
2018-12-03T18:29:49.107Z,599.83
2018-12-03T18:32:30.397Z,632.20
2018-12-03T18:35:11.894Z,648.50
2018-12-03T18:37:45.613Z,626.40
2018-12-03T18:40:20.421Z,606.00
2018-12-03T18:42:54.140Z,622.00
2018-12-03T18:45:26.019Z,621.20
2018-12-03T18:47:57.441Z,605.80
2018-12-03T18:50:33.065Z,639.60
2018-12-03T18:53:10.505Z,597.60
2018-12-03T18:55:42.068Z,612.40
2018-12-03T18:58:15.878Z,598.60
2018-12-03T19:00:48.956Z,591.60
2018-12-03T19:03:20.529Z,580.40
2018-12-03T19:05:53.066Z,559.40
2018-12-03T19:08:24.870Z,553.40
2018-12-03T19:10:57.924Z,556.80
2018-12-03T19:13:30.667Z,591.80
2018-12-03T19:16:02.756Z,585.40
2018-12-03T19:18:34.604Z,564.00
2018-12-03T19:21:06.549Z,596.60
2018-12-03T19:23:38.776Z,558.80
2018-12-03T19:26:10.513Z,552.50
2018-12-03T19:28:42.904Z,567.80
2018-12-03T19:31:15.080Z,547.00
2018-12-03T19:33:49.091Z,560.20
2018-12-03T19:36:25.839Z,554.00
2018-12-03T19:38:57.714Z,534.50
2018-12-03T19:41:29.792Z,534.80
2018-12-03T19:44:02.815Z,521.40
2018-12-03T19:46:35.380Z,524.60
2018-12-03T19:49:08.152Z,529.20
2018-12-03T19:51:41.661Z,541.00
2018-12-03T19:54:14.794Z,519.80
2018-12-03T19:56:47.476Z,536.60
2018-12-03T19:59:19.129Z,534.20
2018-12-03T20:01:51.454Z,523.20
2018-12-03T20:04:28.128Z,521.75
2018-12-03T20:06:59.806Z,528.75
2018-12-03T20:09:31.146Z,522.80
2018-12-03T20:12:02.635Z,543.50
2018-12-03T20:14:34.023Z,527.00
2018-12-03T20:17:09.174Z,530.40
2018-12-03T20:19:43.880Z,542.60
2018-12-03T20:22:18.557Z,544.80
2018-12-03T20:24:50.250Z,506.50
2018-12-03T20:27:32.238Z,555.00
2018-12-03T20:31:14.268Z,580.25
2018-12-03T20:34:24.089Z,579.20
2018-12-03T20:37:06.794Z,572.00
2018-12-03T20:39:50.750Z,578.00
2018-12-03T20:42:26.942Z,571.50
2018-12-03T20:45:16.676Z,540.00
2018-12-03T20:47:51.724Z,590.40
2018-12-03T20:50:35.361Z,579.00
2018-12-03T20:53:10.708Z,571.75
2018-12-03T20:55:45.388Z,579.00
2018-12-03T20:58:17.303Z,573.00
2018-12-03T21:00:49.056Z,569.00
2018-12-03T21:03:22.401Z,555.80
2018-12-03T21:05:55.245Z,516.20
2018-12-03T21:08:32.747Z,492.80
2018-12-03T21:11:05.637Z,454.25
2018-12-03T21:13:39.661Z,457.50
2018-12-03T21:16:11.609Z,465.75
2018-12-03T21:18:43.584Z,453.25
2018-12-03T21:21:15.560Z,454.25
2018-12-03T21:23:48.241Z,447.50
2018-12-03T21:26:19.940Z,434.00
2018-12-03T21:28:51.911Z,406.75
2018-12-03T21:31:24.631Z,398.75
2018-12-03T21:33:56.203Z,412.00
2018-12-03T21:36:29.470Z,412.50
2018-12-03T21:39:02.502Z,434.50
2018-12-03T21:41:36.964Z,403.75
2018-12-03T21:44:08.684Z,435.50
2018-12-03T21:46:40.789Z,462.00
2018-12-03T21:49:12.760Z,453.75
2018-12-03T21:51:45.480Z,416.50
2018-12-03T21:54:22.235Z,407.50
2018-12-03T21:56:54.373Z,388.75
2018-12-03T21:59:27.477Z,391.50
2018-12-03T22:02:01.537Z,402.25
2018-12-03T22:04:34.302Z,411.75
2018-12-03T22:07:17.135Z,416.25
2018-12-03T22:09:50.066Z,421.75
2018-12-03T22:12:25.376Z,437.00
2018-12-03T22:15:01.479Z,424.50
2018-12-03T22:17:36.877Z,397.75
2018-12-03T22:20:15.245Z,397.25
2018-12-03T22:22:47.244Z,411.75
2018-12-03T22:25:20.945Z,419.00
2018-12-03T22:27:58.749Z,429.75
2018-12-03T22:30:30.797Z,408.75
2018-12-03T22:33:07.538Z,403.25
2018-12-03T22:35:39.203Z,435.75
2018-12-03T22:38:11.467Z,428.75
2018-12-03T22:40:45.055Z,425.00
2018-12-03T22:43:19.435Z,436.25
2018-12-03T22:45:57.104Z,409.25
2018-12-03T22:48:33.985Z,423.50
2018-12-03T22:51:08.031Z,442.25
2018-12-03T22:53:40.616Z,417.75
2018-12-03T22:56:12.994Z,416.00
2018-12-03T22:58:46.537Z,430.50
2018-12-03T23:01:25.136Z,435.00
2018-12-03T23:03:57.065Z,417.00
2018-12-03T23:06:29.985Z,457.50
2018-12-03T23:09:02.107Z,434.50
2018-12-03T23:11:36.173Z,395.25
2018-12-03T23:14:08.173Z,408.75
2018-12-03T23:16:40.892Z,433.50
2018-12-03T23:19:14.606Z,403.75
2018-12-03T23:21:47.749Z,427.00
2018-12-03T23:24:20.370Z,428.25
2018-12-03T23:26:53.202Z,422.75
2018-12-03T23:29:24.936Z,421.25
2018-12-03T23:31:56.979Z,403.75
2018-12-03T23:34:28.624Z,396.50
2018-12-03T23:37:04.343Z,406.50
2018-12-03T23:39:37.269Z,361.50
2018-12-03T23:42:09.079Z,382.25
2018-12-03T23:44:40.702Z,355.75
2018-12-03T23:47:13.904Z,380.75
2018-12-03T23:49:47.518Z,367.00
2018-12-03T23:52:19.544Z,375.75
2018-12-03T23:54:51.439Z,366.25
2018-12-03T23:57:23.616Z,375.75
2018-12-03T23:59:58.757Z,371.00
